sensor_id;sensor_type;location;lat;lon;timestamp;P1;durP1;ratioP1;P2;durP2;ratioP2
1957;SDS011;979;51.076;13.748;2022-12-24T00:00:17;24.00;;;23.20;;
1957;SDS011;979;51.076;13.748;2022-12-24T00:02:56;22.57;;;21.87;;
1957;SDS011;979;51.076;13.748;2022-12-24T00:05:32;22.50;;;21.70;;
1957;SDS011;979;51.076;13.748;2022-12-24T00:08:21;21.77;;;21.07;;
1957;SDS011;979;51.076;13.748;2022-12-24T00:10:53;20.50;;;19.80;;
1957;SDS011;979;51.076;13.748;2022-12-24T00:13:26;20.87;;;20.17;;
1957;SDS011;979;51.076;13.748;2022-12-24T00:26:44;22.20;;;21.50;;
1957;SDS011;979;51.076;13.748;2022-12-24T00:29:23;21.37;;;20.67;;
1957;SDS011;979;51.076;13.748;2022-12-24T00:39:53;21.07;;;20.40;;
1957;SDS011;979;51.076;13.748;2022-12-24T00:42:42;22.23;;;21.53;;
1957;SDS011;979;51.076;13.748;2022-12-24T00:45:39;21.97;;;21.27;;
1957;SDS011;979;51.076;13.748;2022-12-24T00:48:18;21.17;;;20.47;;
1957;SDS011;979;51.076;13.748;2022-12-24T00:50:54;21.10;;;20.40;;
1957;SDS011;979;51.076;13.748;2022-12-24T00:57:05;19.80;;;19.20;;
1957;SDS011;979;51.076;13.748;2022-12-24T00:59:57;19.23;;;18.63;;
1957;SDS011;979;51.076;13.748;2022-12-24T01:07:17;19.10;;;18.50;;
1957;SDS011;979;51.076;13.748;2022-12-24T01:09:58;19.80;;;19.17;;
1957;SDS011;979;51.076;13.748;2022-12-24T01:19:02;16.20;;;15.80;;
1957;SDS011;979;51.076;13.748;2022-12-24T01:59:37;15.20;;;14.90;;
1957;SDS011;979;51.076;13.748;2022-12-24T02:05:31;15.97;;;15.57;;
1957;SDS011;979;51.076;13.748;2022-12-24T02:08:51;15.93;;;15.53;;
1957;SDS011;979;51.076;13.748;2022-12-24T02:11:41;15.40;;;14.90;;
1957;SDS011;979;51.076;13.748;2022-12-24T02:14:30;15.90;;;15.50;;
1957;SDS011;979;51.076;13.748;2022-12-24T02:35:46;14.80;;;14.40;;
1957;SDS011;979;51.076;13.748;2022-12-24T02:38:19;16.37;;;15.30;;
1957;SDS011;979;51.076;13.748;2022-12-24T02:40:55;15.70;;;15.10;;
1957;SDS011;979;51.076;13.748;2022-12-24T02:43:30;15.53;;;14.87;;
1957;SDS011;979;51.076;13.748;2022-12-24T02:46:03;15.77;;;14.93;;
1957;SDS011;979;51.076;13.748;2022-12-24T02:48:36;15.37;;;14.67;;
1957;SDS011;979;51.076;13.748;2022-12-24T02:51:10;16.43;;;15.73;;
1957;SDS011;979;51.076;13.748;2022-12-24T02:53:39;16.73;;;15.70;;
1957;SDS011;979;51.076;13.748;2022-12-24T02:56:16;16.23;;;15.63;;
1957;SDS011;979;51.076;13.748;2022-12-24T02:58:58;17.73;;;16.53;;
1957;SDS011;979;51.076;13.748;2022-12-24T03:01:44;16.37;;;15.70;;
1957;SDS011;979;51.076;13.748;2022-12-24T03:04:25;16.30;;;15.70;;
1957;SDS011;979;51.076;13.748;2022-12-24T03:07:09;15.77;;;15.07;;
1957;SDS011;979;51.076;13.748;2022-12-24T03:09:48;16.10;;;15.30;;
1957;SDS011;979;51.076;13.748;2022-12-24T03:12:26;16.00;;;15.30;;
1957;SDS011;979;51.076;13.748;2022-12-24T03:14:58;15.80;;;15.20;;
1957;SDS011;979;51.076;13.748;2022-12-24T03:17:27;23.93;;;22.63;;
1957;SDS011;979;51.076;13.748;2022-12-24T03:19:58;24.33;;;23.10;;
1957;SDS011;979;51.076;13.748;2022-12-24T03:26:22;27.93;;;26.23;;
1957;SDS011;979;51.076;13.748;2022-12-24T03:28:52;24.80;;;23.20;;
1957;SDS011;979;51.076;13.748;2022-12-24T03:31:21;27.33;;;25.70;;
1957;SDS011;979;51.076;13.748;2022-12-24T03:34:03;24.50;;;23.30;;
1957;SDS011;979;51.076;13.748;2022-12-24T03:36:31;22.53;;;21.43;;
1957;SDS011;979;51.076;13.748;2022-12-24T03:39:00;22.07;;;20.53;;
1957;SDS011;979;51.076;13.748;2022-12-24T03:41:30;19.83;;;19.03;;
1957;SDS011;979;51.076;13.748;2022-12-24T03:43:59;19.47;;;18.67;;
1957;SDS011;979;51.076;13.748;2022-12-24T03:46:30;20.30;;;19.40;;
1957;SDS011;979;51.076;13.748;2022-12-24T03:48:59;19.33;;;18.53;;
1957;SDS011;979;51.076;13.748;2022-12-24T03:51:27;18.40;;;17.50;;
1957;SDS011;979;51.076;13.748;2022-12-24T03:53:56;17.77;;;16.97;;
1957;SDS011;979;51.076;13.748;2022-12-24T03:56:25;17.47;;;16.87;;
1957;SDS011;979;51.076;13.748;2022-12-24T03:58:57;17.30;;;16.60;;
1957;SDS011;979;51.076;13.748;2022-12-24T04:01:25;17.60;;;16.90;;
1957;SDS011;979;51.076;13.748;2022-12-24T04:03:55;17.67;;;16.97;;
1957;SDS011;979;51.076;13.748;2022-12-24T04:06:23;17.50;;;16.80;;
1957;SDS011;979;51.076;13.748;2022-12-24T04:08:51;17.40;;;16.50;;
1957;SDS011;979;51.076;13.748;2022-12-24T04:11:19;18.07;;;17.13;;
1957;SDS011;979;51.076;13.748;2022-12-24T04:13:48;17.70;;;17.00;;
1957;SDS011;979;51.076;13.748;2022-12-24T04:16:19;17.30;;;16.30;;
1957;SDS011;979;51.076;13.748;2022-12-24T04:18:47;17.47;;;16.77;;
1957;SDS011;979;51.076;13.748;2022-12-24T04:21:16;16.83;;;16.00;;
1957;SDS011;979;51.076;13.748;2022-12-24T04:23:45;16.23;;;15.53;;
1957;SDS011;979;51.076;13.748;2022-12-24T04:26:14;16.10;;;15.40;;
1957;SDS011;979;51.076;13.748;2022-12-24T04:28:42;16.33;;;15.73;;
1957;SDS011;979;51.076;13.748;2022-12-24T04:31:12;15.60;;;14.93;;
1957;SDS011;979;51.076;13.748;2022-12-24T04:33:52;15.43;;;14.83;;
1957;SDS011;979;51.076;13.748;2022-12-24T04:36:22;15.07;;;14.67;;
1957;SDS011;979;51.076;13.748;2022-12-24T04:38:51;16.07;;;15.30;;
1957;SDS011;979;51.076;13.748;2022-12-24T04:41:20;17.40;;;16.17;;
1957;SDS011;979;51.076;13.748;2022-12-24T04:43:56;16.27;;;15.57;;
1957;SDS011;979;51.076;13.748;2022-12-24T04:46:26;15.33;;;14.70;;
1957;SDS011;979;51.076;13.748;2022-12-24T04:48:58;15.80;;;15.10;;
1957;SDS011;979;51.076;13.748;2022-12-24T04:51:27;16.23;;;15.53;;
1957;SDS011;979;51.076;13.748;2022-12-24T04:53:56;17.20;;;16.20;;
1957;SDS011;979;51.076;13.748;2022-12-24T04:56:25;16.07;;;15.37;;
1957;SDS011;979;51.076;13.748;2022-12-24T04:58:56;16.57;;;15.77;;
1957;SDS011;979;51.076;13.748;2022-12-24T05:01:28;17.27;;;16.50;;
1957;SDS011;979;51.076;13.748;2022-12-24T05:04:00;16.70;;;15.60;;
1957;SDS011;979;51.076;13.748;2022-12-24T05:06:34;16.67;;;15.87;;
1957;SDS011;979;51.076;13.748;2022-12-24T05:09:03;16.87;;;16.07;;
1957;SDS011;979;51.076;13.748;2022-12-24T05:11:32;17.30;;;16.30;;
1957;SDS011;979;51.076;13.748;2022-12-24T05:14:00;16.07;;;15.50;;
1957;SDS011;979;51.076;13.748;2022-12-24T05:16:29;16.30;;;15.70;;
1957;SDS011;979;51.076;13.748;2022-12-24T05:19:02;17.67;;;16.70;;
1957;SDS011;979;51.076;13.748;2022-12-24T05:21:31;15.87;;;15.20;;
1957;SDS011;979;51.076;13.748;2022-12-24T05:24:00;16.60;;;15.90;;
1957;SDS011;979;51.076;13.748;2022-12-24T05:26:49;19.70;;;18.60;;
1957;SDS011;979;51.076;13.748;2022-12-24T05:29:19;18.67;;;17.83;;
1957;SDS011;979;51.076;13.748;2022-12-24T05:31:48;18.93;;;18.13;;
1957;SDS011;979;51.076;13.748;2022-12-24T05:34:18;19.37;;;18.27;;
1957;SDS011;979;51.076;13.748;2022-12-24T05:36:47;19.13;;;18.23;;
1957;SDS011;979;51.076;13.748;2022-12-24T05:39:16;19.43;;;18.23;;
1957;SDS011;979;51.076;13.748;2022-12-24T05:41:45;19.10;;;18.00;;
1957;SDS011;979;51.076;13.748;2022-12-24T05:44:14;19.07;;;18.30;;
1957;SDS011;979;51.076;13.748;2022-12-24T05:46:43;20.17;;;18.97;;
1957;SDS011;979;51.076;13.748;2022-12-24T05:49:16;19.83;;;18.97;;
1957;SDS011;979;51.076;13.748;2022-12-24T05:51:46;18.63;;;17.53;;
1957;SDS011;979;51.076;13.748;2022-12-24T05:54:15;17.67;;;16.77;;
1957;SDS011;979;51.076;13.748;2022-12-24T05:56:44;17.73;;;16.73;;
1957;SDS011;979;51.076;13.748;2022-12-24T05:59:13;17.20;;;16.23;;
1957;SDS011;979;51.076;13.748;2022-12-24T06:01:41;17.07;;;16.17;;
1957;SDS011;979;51.076;13.748;2022-12-24T06:04:14;16.60;;;15.90;;
1957;SDS011;979;51.076;13.748;2022-12-24T06:06:51;17.60;;;16.60;;
1957;SDS011;979;51.076;13.748;2022-12-24T06:09:21;17.20;;;16.30;;
1957;SDS011;979;51.076;13.748;2022-12-24T06:11:50;16.33;;;15.63;;
1957;SDS011;979;51.076;13.748;2022-12-24T06:14:24;16.30;;;15.70;;
1957;SDS011;979;51.076;13.748;2022-12-24T06:16:53;16.43;;;15.70;;
1957;SDS011;979;51.076;13.748;2022-12-24T06:19:22;16.80;;;16.10;;
1957;SDS011;979;51.076;13.748;2022-12-24T06:21:52;17.10;;;16.10;;
1957;SDS011;979;51.076;13.748;2022-12-24T06:24:21;17.00;;;16.00;;
1957;SDS011;979;51.076;13.748;2022-12-24T06:26:50;17.33;;;16.30;;
1957;SDS011;979;51.076;13.748;2022-12-24T06:29:19;17.17;;;16.37;;
1957;SDS011;979;51.076;13.748;2022-12-24T06:31:48;17.27;;;16.40;;
1957;SDS011;979;51.076;13.748;2022-12-24T06:34:18;16.80;;;16.00;;
1957;SDS011;979;51.076;13.748;2022-12-24T06:36:51;16.77;;;15.80;;
1957;SDS011;979;51.076;13.748;2022-12-24T06:39:51;16.43;;;15.70;;
1957;SDS011;979;51.076;13.748;2022-12-24T06:42:31;16.07;;;15.50;;
1957;SDS011;979;51.076;13.748;2022-12-24T06:45:28;16.80;;;15.70;;
1957;SDS011;979;51.076;13.748;2022-12-24T06:49:17;15.97;;;15.23;;
1957;SDS011;979;51.076;13.748;2022-12-24T06:51:52;16.97;;;15.70;;
1957;SDS011;979;51.076;13.748;2022-12-24T06:54:20;16.70;;;15.70;;
1957;SDS011;979;51.076;13.748;2022-12-24T06:56:51;15.80;;;15.00;;
1957;SDS011;979;51.076;13.748;2022-12-24T06:59:23;15.70;;;15.00;;
1957;SDS011;979;51.076;13.748;2022-12-24T07:01:52;16.27;;;15.70;;
1957;SDS011;979;51.076;13.748;2022-12-24T07:04:21;16.10;;;15.23;;
1957;SDS011;979;51.076;13.748;2022-12-24T07:06:50;16.20;;;15.50;;
1957;SDS011;979;51.076;13.748;2022-12-24T07:09:19;15.53;;;14.80;;
1957;SDS011;979;51.076;13.748;2022-12-24T07:11:47;16.47;;;15.30;;
1957;SDS011;979;51.076;13.748;2022-12-24T07:14:18;15.23;;;14.53;;
1957;SDS011;979;51.076;13.748;2022-12-24T07:18:14;16.20;;;15.13;;
1957;SDS011;979;51.076;13.748;2022-12-24T07:20:43;15.77;;;14.67;;
1957;SDS011;979;51.076;13.748;2022-12-24T07:23:12;15.57;;;14.87;;
1957;SDS011;979;51.076;13.748;2022-12-24T07:25:49;16.37;;;15.40;;
1957;SDS011;979;51.076;13.748;2022-12-24T07:28:18;15.40;;;14.70;;
1957;SDS011;979;51.076;13.748;2022-12-24T07:30:55;15.37;;;14.87;;
1957;SDS011;979;51.076;13.748;2022-12-24T07:33:24;16.07;;;15.30;;
1957;SDS011;979;51.076;13.748;2022-12-24T07:35:56;17.00;;;15.83;;
1957;SDS011;979;51.076;13.748;2022-12-24T07:41:48;15.97;;;15.33;;
1957;SDS011;979;51.076;13.748;2022-12-24T07:44:20;16.60;;;15.53;;
1957;SDS011;979;51.076;13.748;2022-12-24T07:46:50;16.10;;;15.40;;
1957;SDS011;979;51.076;13.748;2022-12-24T07:49:21;15.37;;;14.57;;
1957;SDS011;979;51.076;13.748;2022-12-24T07:51:50;15.57;;;14.90;;
1957;SDS011;979;51.076;13.748;2022-12-24T07:54:23;15.10;;;14.40;;
1957;SDS011;979;51.076;13.748;2022-12-24T07:56:52;15.70;;;14.63;;
1957;SDS011;979;51.076;13.748;2022-12-24T07:59:21;15.73;;;14.87;;
1957;SDS011;979;51.076;13.748;2022-12-24T08:01:58;17.00;;;16.00;;
1957;SDS011;979;51.076;13.748;2022-12-24T08:04:46;16.10;;;15.07;;
1957;SDS011;979;51.076;13.748;2022-12-24T08:07:15;15.63;;;14.83;;
1957;SDS011;979;51.076;13.748;2022-12-24T08:10:51;16.30;;;15.60;;
1957;SDS011;979;51.076;13.748;2022-12-24T08:13:43;15.93;;;14.60;;
1957;SDS011;979;51.076;13.748;2022-12-24T08:37:02;15.57;;;14.97;;
1957;SDS011;979;51.076;13.748;2022-12-24T08:40:09;15.47;;;14.80;;
1957;SDS011;979;51.076;13.748;2022-12-24T08:52:44;15.40;;;14.67;;
1957;SDS011;979;51.076;13.748;2022-12-24T08:55:43;15.23;;;14.20;;
1957;SDS011;979;51.076;13.748;2022-12-24T08:59:51;15.00;;;14.20;;
1957;SDS011;979;51.076;13.748;2022-12-24T09:02:45;14.40;;;13.80;;
1957;SDS011;979;51.076;13.748;2022-12-24T09:10:02;15.77;;;14.67;;
1957;SDS011;979;51.076;13.748;2022-12-24T09:13:20;15.20;;;14.50;;
1957;SDS011;979;51.076;13.748;2022-12-24T09:23:27;15.10;;;14.30;;
1957;SDS011;979;51.076;13.748;2022-12-24T09:34:46;15.70;;;14.80;;
1957;SDS011;979;51.076;13.748;2022-12-24T09:37:44;15.00;;;14.30;;
1957;SDS011;979;51.076;13.748;2022-12-24T09:40:50;15.30;;;14.57;;
1957;SDS011;979;51.076;13.748;2022-12-24T09:43:38;15.63;;;14.37;;
